createdAt,value
2023-04-18T00:00:10.832Z,102404.00
2023-04-18T00:02:44.266Z,102410.00
2023-04-18T00:05:13.583Z,102408.00
2023-04-18T00:07:43.832Z,102395.00
2023-04-18T00:10:12.942Z,102400.00
2023-04-18T00:12:43.047Z,102400.00
2023-04-18T00:15:13.744Z,102396.00
2023-04-18T00:17:42.779Z,102394.00
2023-04-18T00:20:12.835Z,102398.00
2023-04-18T00:22:45.173Z,102399.00
2023-04-18T00:25:14.111Z,102405.00
2023-04-18T00:27:43.303Z,102400.00
2023-04-18T00:30:13.184Z,102410.00
2023-04-18T00:32:41.984Z,102407.00
2023-04-18T00:35:11.017Z,102389.00
2023-04-18T00:37:40.224Z,102397.00
2023-04-18T00:40:13.051Z,102402.00
2023-04-18T00:42:41.691Z,102406.00
2023-04-18T00:45:11.885Z,102404.00
2023-04-18T00:47:40.677Z,102396.00
2023-04-18T00:50:11.872Z,102408.00
2023-04-18T00:52:40.760Z,102393.00
2023-04-18T00:55:12.202Z,102402.00
2023-04-18T00:57:41.642Z,102403.00
2023-04-18T01:00:11.625Z,102412.00
2023-04-18T01:02:43.195Z,102403.00
2023-04-18T01:05:12.172Z,102398.00
2023-04-18T01:07:41.907Z,102403.00
2023-04-18T01:10:12.728Z,102394.00
2023-04-18T01:12:42.422Z,102398.00
2023-04-18T01:15:11.868Z,102400.00
2023-04-18T01:17:41.003Z,102399.00
2023-04-18T01:20:12.365Z,102393.00
2023-04-18T01:22:42.183Z,102403.00
2023-04-18T01:25:13.651Z,102395.00
2023-04-18T01:27:42.395Z,102398.00
2023-04-18T01:30:12.882Z,102408.00
2023-04-18T01:32:41.652Z,102407.00
2023-04-18T01:35:11.261Z,102406.00
2023-04-18T01:37:40.266Z,102404.00
2023-04-18T01:40:12.844Z,102403.00
2023-04-18T01:42:41.564Z,102399.00
2023-04-18T01:45:14.153Z,102402.00
2023-04-18T01:47:43.230Z,102393.00
2023-04-18T01:50:15.344Z,102386.00
2023-04-18T01:52:44.968Z,102394.00
2023-04-18T01:55:15.270Z,102390.00
2023-04-18T01:57:43.962Z,102386.00
2023-04-18T02:00:14.237Z,102382.00
2023-04-18T02:02:45.857Z,102385.00
2023-04-18T02:05:14.637Z,102384.00
2023-04-18T02:07:43.468Z,102388.00
2023-04-18T02:10:14.332Z,102384.00
2023-04-18T02:12:43.169Z,102389.00
2023-04-18T02:15:13.019Z,102392.00
2023-04-18T02:17:42.470Z,102388.00
2023-04-18T02:20:13.522Z,102393.00
2023-04-18T02:22:42.342Z,102399.00
2023-04-18T02:25:12.046Z,102397.00
2023-04-18T02:27:42.626Z,102387.00
2023-04-18T02:30:12.285Z,102395.00
2023-04-18T02:32:41.188Z,102405.00
2023-04-18T02:35:10.500Z,102404.00
2023-04-18T02:37:39.231Z,102410.00
2023-04-18T02:40:10.145Z,102406.00
2023-04-18T02:42:38.866Z,102402.00
2023-04-18T02:45:10.824Z,102399.00
2023-04-18T02:47:47.380Z,102398.00
2023-04-18T02:50:23.058Z,102403.00
2023-04-18T02:52:52.264Z,102391.00
2023-04-18T02:55:23.177Z,102397.00
2023-04-18T02:57:53.587Z,102406.00
2023-04-18T03:01:00.080Z,102386.00
2023-04-18T03:03:28.846Z,102396.00
2023-04-18T03:06:17.853Z,102394.00
2023-04-18T03:08:46.753Z,102393.00
2023-04-18T03:11:16.214Z,102395.00
2023-04-18T03:13:44.986Z,102397.00
2023-04-18T03:16:15.979Z,102395.00
2023-04-18T03:18:45.395Z,102391.00
2023-04-18T03:21:14.893Z,102399.00
2023-04-18T03:23:43.988Z,102386.00
2023-04-18T03:26:14.012Z,102392.00
2023-04-18T03:28:44.186Z,102389.00
2023-04-18T03:31:13.509Z,102391.00
2023-04-18T03:33:47.297Z,102391.00
2023-04-18T03:36:18.600Z,102392.00
2023-04-18T03:38:47.536Z,102393.00
2023-04-18T03:41:16.251Z,102398.00
2023-04-18T03:43:44.977Z,102393.00
2023-04-18T03:46:13.949Z,102391.00
2023-04-18T03:48:46.149Z,102402.00
2023-04-18T03:51:23.527Z,102407.00
2023-04-18T03:53:52.277Z,102398.00
2023-04-18T03:56:21.025Z,102402.00
2023-04-18T03:58:52.860Z,102405.00
2023-04-18T04:01:23.072Z,102408.00
2023-04-18T04:03:53.896Z,102405.00
2023-04-18T04:06:24.650Z,102405.00
2023-04-18T04:08:53.355Z,102411.00
2023-04-18T04:11:26.083Z,102416.00
2023-04-18T04:13:55.577Z,102414.00
2023-04-18T04:16:30.002Z,102408.00
2023-04-18T04:18:58.882Z,102426.00
2023-04-18T04:21:35.964Z,102426.00
2023-04-18T04:24:07.012Z,102425.00
2023-04-18T04:26:42.791Z,102435.00
2023-04-18T04:29:16.458Z,102429.00
2023-04-18T04:31:47.117Z,102434.00
2023-04-18T04:34:20.459Z,102440.00
2023-04-18T04:36:51.254Z,102434.00
2023-04-18T04:39:20.334Z,102442.00
2023-04-18T04:42:07.658Z,102438.00
2023-04-18T04:44:45.162Z,102442.00
2023-04-18T04:47:14.239Z,102440.00
2023-04-18T04:49:42.994Z,102441.00
2023-04-18T04:52:13.186Z,102434.00
2023-04-18T04:54:42.055Z,102430.00
2023-04-18T04:57:14.106Z,102432.00
2023-04-18T04:59:42.840Z,102435.00
2023-04-18T05:02:12.920Z,102433.00
2023-04-18T05:04:43.178Z,102432.00
2023-04-18T05:07:13.378Z,102431.00
2023-04-18T05:09:42.011Z,102431.00
2023-04-18T05:12:10.889Z,102424.00
2023-04-18T05:14:39.702Z,102432.00
2023-04-18T05:17:08.623Z,102438.00
2023-04-18T05:19:37.523Z,102434.00
2023-04-18T05:22:06.409Z,102433.00
2023-04-18T05:24:36.451Z,102436.00
2023-04-18T05:27:06.012Z,102435.00
2023-04-18T05:29:34.939Z,102436.00
2023-04-18T05:32:03.644Z,102440.00
2023-04-18T05:34:32.375Z,102437.00
2023-04-18T05:37:01.193Z,102432.00
2023-04-18T05:39:30.095Z,102438.00
2023-04-18T05:42:00.920Z,102434.00
2023-04-18T05:44:30.539Z,102437.00
2023-04-18T05:46:59.262Z,102439.00
2023-04-18T05:49:28.009Z,102438.00
2023-04-18T05:51:57.386Z,102434.00
2023-04-18T05:54:26.339Z,102434.00
2023-04-18T05:56:57.067Z,102438.00
2023-04-18T05:59:27.984Z,102440.00
2023-04-18T06:01:57.360Z,102436.00
2023-04-18T06:04:26.220Z,102432.00
2023-04-18T06:06:55.121Z,102435.00
2023-04-18T06:09:23.948Z,102439.00
2023-04-18T06:11:52.881Z,102439.00
2023-04-18T06:14:21.532Z,102439.00
2023-04-18T06:16:51.781Z,102435.00
2023-04-18T06:19:20.536Z,102436.00
2023-04-18T06:21:50.272Z,102440.00
2023-04-18T06:24:18.996Z,102430.00
2023-04-18T06:26:47.741Z,102441.00
2023-04-18T06:29:18.158Z,102444.00
2023-04-18T06:31:48.469Z,102442.00
2023-04-18T06:34:18.971Z,102444.00
2023-04-18T06:36:48.252Z,102439.00
2023-04-18T06:39:17.095Z,102437.00
2023-04-18T06:41:45.947Z,102437.00
2023-04-18T06:44:24.610Z,102437.00
2023-04-18T06:46:53.440Z,102433.00
2023-04-18T06:49:26.446Z,102437.00
2023-04-18T06:51:55.678Z,102444.00
2023-04-18T06:54:24.428Z,102431.00
2023-04-18T06:56:54.609Z,102440.00
2023-04-18T06:59:23.525Z,102447.00
2023-04-18T07:01:52.840Z,102438.00
2023-04-18T07:04:23.008Z,102438.00
2023-04-18T07:06:54.411Z,102432.00
2023-04-18T07:09:23.669Z,102435.00
2023-04-18T07:11:52.989Z,102439.00
2023-04-18T07:14:24.268Z,102440.00
2023-04-18T07:16:53.553Z,102433.00
2023-04-18T07:19:23.756Z,102443.00
2023-04-18T07:21:52.443Z,102448.00
2023-04-18T07:24:23.614Z,102443.00
2023-04-18T07:26:54.797Z,102442.00
2023-04-18T07:29:24.025Z,102453.00
2023-04-18T07:31:53.202Z,102458.00
2023-04-18T07:34:23.627Z,102446.00
2023-04-18T07:36:52.409Z,102453.00
2023-04-18T07:39:21.077Z,102459.00
2023-04-18T07:41:50.009Z,102455.00
2023-04-18T07:44:18.751Z,102454.00
2023-04-18T07:46:47.525Z,102459.00
2023-04-18T07:49:16.640Z,102460.00
2023-04-18T07:51:46.952Z,102457.00
2023-04-18T07:54:15.821Z,102457.00
2023-04-18T07:56:44.705Z,102462.00
2023-04-18T07:59:13.825Z,102473.00
2023-04-18T08:01:42.696Z,102472.00
2023-04-18T08:04:12.008Z,102459.00
2023-04-18T08:06:40.873Z,102469.00
2023-04-18T08:09:12.058Z,102468.00
2023-04-18T08:11:44.135Z,102472.00
2023-04-18T08:14:13.244Z,102466.00
2023-04-18T08:16:42.115Z,102458.00
2023-04-18T08:19:11.419Z,102470.00
2023-04-18T08:21:40.267Z,102466.00
2023-04-18T08:24:10.693Z,102463.00
2023-04-18T08:26:40.675Z,102460.00
2023-04-18T08:29:09.386Z,102460.00
2023-04-18T08:31:38.161Z,102463.00
2023-04-18T08:34:23.539Z,102462.00
2023-04-18T08:36:53.288Z,102470.00
2023-04-18T08:39:26.633Z,102462.00
2023-04-18T08:42:02.417Z,102464.00
2023-04-18T08:44:32.849Z,102468.00
2023-04-18T08:47:03.426Z,102463.00
2023-04-18T08:49:33.743Z,102471.00
2023-04-18T08:52:06.567Z,102466.00
2023-04-18T08:54:38.646Z,102467.00
2023-04-18T08:57:12.598Z,102470.00
2023-04-18T08:59:43.129Z,102465.00
2023-04-18T09:02:22.410Z,102466.00
2023-04-18T09:04:53.742Z,102461.00
2023-04-18T09:07:30.919Z,102477.00
2023-04-18T09:10:12.724Z,102466.00
2023-04-18T09:13:03.972Z,102473.00
2023-04-18T09:15:47.475Z,102463.00
2023-04-18T09:18:18.558Z,102475.00
2023-04-18T09:20:49.996Z,102475.00
2023-04-18T09:23:27.151Z,102473.00
2023-04-18T09:25:59.118Z,102472.00
2023-04-18T09:28:32.208Z,102474.00
2023-04-18T09:31:12.103Z,102477.00
2023-04-18T09:33:46.464Z,102473.00
2023-04-18T09:36:21.070Z,102477.00
2023-04-18T09:38:53.675Z,102472.00
2023-04-18T09:41:26.067Z,102473.00
2023-04-18T09:44:15.128Z,102469.00
2023-04-18T09:46:47.639Z,102471.00
2023-04-18T09:49:17.632Z,102489.00
2023-04-18T09:51:47.274Z,102477.00
2023-04-18T09:54:18.417Z,102479.00
2023-04-18T09:56:51.870Z,102488.00
2023-04-18T09:59:42.324Z,102480.00
2023-04-18T10:02:18.911Z,102486.00
2023-04-18T10:04:50.471Z,102479.00
2023-04-18T10:07:20.162Z,102486.00
2023-04-18T10:09:50.692Z,102497.00
2023-04-18T10:12:21.592Z,102484.00
2023-04-18T10:14:51.300Z,102484.00
2023-04-18T10:17:22.453Z,102494.00
2023-04-18T10:20:08.066Z,102499.00
2023-04-18T10:22:36.851Z,102498.00
2023-04-18T10:25:06.882Z,102491.00
2023-04-18T10:28:01.340Z,102490.00
2023-04-18T10:31:05.016Z,102503.00
2023-04-18T10:33:42.516Z,102501.00
2023-04-18T10:36:20.538Z,102503.00
2023-04-18T10:38:51.577Z,102504.00
2023-04-18T10:41:24.046Z,102505.00
2023-04-18T10:44:30.479Z,102495.00
2023-04-18T10:47:24.212Z,102499.00
2023-04-18T10:50:11.915Z,102499.00
2023-04-18T10:52:41.787Z,102504.00
2023-04-18T10:55:19.575Z,102507.00
2023-04-18T10:57:51.639Z,102492.00
2023-04-18T11:00:24.723Z,102503.00
2023-04-18T11:02:57.812Z,102516.00
2023-04-18T11:05:29.383Z,102501.00
2023-04-18T11:07:58.130Z,102505.00
2023-04-18T11:10:29.646Z,102501.00
2023-04-18T11:13:04.671Z,102518.00
2023-04-18T11:15:39.948Z,102504.00
2023-04-18T11:18:10.864Z,102486.00
2023-04-18T11:20:47.255Z,102489.00
2023-04-18T11:23:22.994Z,102501.00
2023-04-18T11:25:53.791Z,102514.00
2023-04-18T11:28:25.094Z,102520.00
2023-04-18T11:31:00.539Z,102511.00
2023-04-18T11:33:30.417Z,102521.00
2023-04-18T11:36:00.203Z,102521.00
2023-04-18T11:38:31.354Z,102526.00
2023-04-18T11:41:00.453Z,102523.00
2023-04-18T11:43:29.153Z,102521.00
2023-04-18T11:46:01.798Z,102541.00
2023-04-18T11:48:36.480Z,102525.00
2023-04-18T11:51:06.492Z,102528.00
2023-04-18T11:53:36.645Z,102517.00
2023-04-18T11:56:06.557Z,102524.00
2023-04-18T11:58:38.782Z,102518.00
2023-04-18T12:01:24.916Z,102528.00
2023-04-18T12:04:05.255Z,102519.00
2023-04-18T12:06:50.318Z,102536.00
2023-04-18T12:09:19.762Z,102543.00
2023-04-18T12:11:59.446Z,102526.00
2023-04-18T12:14:28.524Z,102526.00
2023-04-18T12:16:58.694Z,102527.00
2023-04-18T12:19:28.869Z,102524.00
2023-04-18T12:22:01.679Z,102528.00
2023-04-18T12:24:32.407Z,102535.00
2023-04-18T12:27:01.354Z,102532.00
2023-04-18T12:29:30.984Z,102524.00
2023-04-18T12:32:01.092Z,102530.00
2023-04-18T12:34:30.046Z,102530.00
2023-04-18T12:36:58.796Z,102536.00
2023-04-18T12:39:27.517Z,102534.00
2023-04-18T12:41:57.374Z,102519.00
2023-04-18T12:44:28.320Z,102536.00
2023-04-18T12:47:01.766Z,102534.00
2023-04-18T12:49:30.496Z,102534.00
2023-04-18T12:51:59.130Z,102540.00
2023-04-18T12:54:27.802Z,102538.00
2023-04-18T12:56:56.486Z,102545.00
2023-04-18T12:59:25.252Z,102543.00
2023-04-18T13:01:53.951Z,102540.00
2023-04-18T13:04:24.343Z,102536.00
2023-04-18T13:06:53.146Z,102533.00
2023-04-18T13:09:21.809Z,102535.00
2023-04-18T13:11:50.539Z,102530.00
2023-04-18T13:14:19.252Z,102539.00
2023-04-18T13:16:48.812Z,102544.00
2023-04-18T13:19:17.542Z,102544.00
2023-04-18T13:21:49.580Z,102548.00
2023-04-18T13:24:18.474Z,102538.00
2023-04-18T13:26:47.343Z,102547.00
2023-04-18T13:29:16.270Z,102546.00
2023-04-18T13:31:45.206Z,102556.00
2023-04-18T13:34:14.163Z,102540.00
2023-04-18T13:36:43.060Z,102547.00
2023-04-18T13:39:14.920Z,102550.00
2023-04-18T13:41:43.870Z,102558.00
2023-04-18T13:44:12.523Z,102567.00
2023-04-18T13:46:41.281Z,102559.00
2023-04-18T13:49:10.008Z,102549.00
2023-04-18T13:51:38.701Z,102565.00
2023-04-18T13:54:07.583Z,102569.00
2023-04-18T13:56:39.961Z,102564.00
2023-04-18T13:59:08.705Z,102563.00
2023-04-18T14:01:37.408Z,102555.00
2023-04-18T14:04:06.706Z,102565.00
2023-04-18T14:06:35.657Z,102566.00
2023-04-18T14:09:04.262Z,102572.00
2023-04-18T14:11:33.257Z,102566.00
2023-04-18T14:14:07.238Z,102567.00
2023-04-18T14:16:36.282Z,102569.00
2023-04-18T14:19:05.223Z,102569.00
2023-04-18T14:21:33.893Z,102577.00
2023-04-18T14:24:02.645Z,102574.00
2023-04-18T14:26:31.538Z,102579.00
2023-04-18T14:29:00.628Z,102575.00
2023-04-18T14:31:30.720Z,102566.00
2023-04-18T14:33:59.608Z,102586.00
2023-04-18T14:36:28.464Z,102575.00
2023-04-18T14:38:57.174Z,102576.00
2023-04-18T14:41:25.839Z,102578.00
2023-04-18T14:43:57.414Z,102573.00
2023-04-18T14:46:28.287Z,102579.00
2023-04-18T14:48:59.515Z,102576.00
2023-04-18T14:51:28.259Z,102588.00
2023-04-18T14:53:56.987Z,102582.00
2023-04-18T14:56:25.754Z,102587.00
2023-04-18T14:58:54.512Z,102584.00
2023-04-18T15:01:23.213Z,102584.00
2023-04-18T15:03:52.447Z,102587.00
2023-04-18T15:06:23.161Z,102590.00
2023-04-18T15:08:54.468Z,102572.00
2023-04-18T15:11:24.395Z,102584.00
2023-04-18T15:13:55.941Z,102586.00
2023-04-18T15:16:24.751Z,102587.00
2023-04-18T15:18:53.529Z,102577.00
2023-04-18T15:21:23.651Z,102591.00
2023-04-18T15:23:52.391Z,102590.00
2023-04-18T15:26:21.172Z,102597.00
2023-04-18T15:28:49.902Z,102591.00
2023-04-18T15:31:18.564Z,102610.00
2023-04-18T15:33:47.248Z,102595.00
2023-04-18T15:36:15.917Z,102593.00
2023-04-18T15:38:46.283Z,102603.00
2023-04-18T15:41:14.916Z,102586.00
2023-04-18T15:43:45.412Z,102604.00
2023-04-18T15:46:14.365Z,102607.00
2023-04-18T15:48:43.043Z,102609.00
2023-04-18T15:51:11.717Z,102592.00
2023-04-18T15:53:40.633Z,102607.00
2023-04-18T15:56:11.190Z,102609.00
2023-04-18T15:58:39.970Z,102602.00
2023-04-18T16:01:09.543Z,102599.00
2023-04-18T16:03:38.768Z,102610.00
2023-04-18T16:06:08.101Z,102601.00
2023-04-18T16:08:37.178Z,102604.00
2023-04-18T16:11:06.127Z,102608.00
2023-04-18T16:13:38.398Z,102612.00
2023-04-18T16:16:08.089Z,102607.00
2023-04-18T16:18:36.822Z,102616.00
2023-04-18T16:21:06.008Z,102614.00
2023-04-18T16:23:34.756Z,102611.00
2023-04-18T16:26:03.554Z,102614.00
2023-04-18T16:28:37.554Z,102612.00
2023-04-18T16:31:08.015Z,102620.00
2023-04-18T16:33:36.838Z,102615.00
2023-04-18T16:36:07.362Z,102625.00
2023-04-18T16:38:36.166Z,102614.00
2023-04-18T16:41:05.017Z,102613.00
2023-04-18T16:43:36.520Z,102615.00
2023-04-18T16:46:07.590Z,102618.00
2023-04-18T16:48:39.584Z,102624.00
2023-04-18T16:51:08.262Z,102619.00
2023-04-18T16:53:37.027Z,102622.00
2023-04-18T16:56:07.930Z,102615.00
2023-04-18T16:58:36.686Z,102621.00
2023-04-18T17:01:08.165Z,102607.00
2023-04-18T17:03:38.562Z,102617.00
2023-04-18T17:06:27.607Z,102617.00
2023-04-18T17:09:08.390Z,102620.00
2023-04-18T17:11:42.705Z,102616.00
2023-04-18T17:14:13.079Z,102618.00
2023-04-18T17:16:43.204Z,102622.00
2023-04-18T17:19:13.942Z,102630.00
2023-04-18T17:21:44.064Z,102619.00
2023-04-18T17:24:12.872Z,102628.00
2023-04-18T17:26:41.484Z,102620.00
2023-04-18T17:29:10.571Z,102631.00
2023-04-18T17:31:39.257Z,102629.00
2023-04-18T17:34:08.044Z,102629.00
2023-04-18T17:36:38.135Z,102630.00
2023-04-18T17:39:06.874Z,102631.00
2023-04-18T17:41:38.247Z,102634.00
2023-04-18T17:44:08.561Z,102635.00
2023-04-18T17:46:37.787Z,102634.00
2023-04-18T17:49:06.634Z,102627.00
2023-04-18T17:51:35.388Z,102633.00
2023-04-18T17:54:06.184Z,102635.00
2023-04-18T17:56:35.059Z,102619.00
2023-04-18T17:59:03.874Z,102622.00
2023-04-18T18:01:32.974Z,102634.00
2023-04-18T18:04:02.633Z,102644.00
2023-04-18T18:06:31.463Z,102635.00
2023-04-18T18:09:00.275Z,102640.00
2023-04-18T18:11:30.465Z,102638.00
2023-04-18T18:13:59.303Z,102631.00
2023-04-18T18:16:28.177Z,102632.00
2023-04-18T18:18:57.017Z,102628.00
2023-04-18T18:21:26.373Z,102633.00
2023-04-18T18:23:55.107Z,102624.00
2023-04-18T18:26:26.507Z,102633.00
2023-04-18T18:28:56.637Z,102629.00
2023-04-18T18:31:25.786Z,102622.00
2023-04-18T18:33:54.657Z,102627.00
2023-04-18T18:36:23.396Z,102629.00
2023-04-18T18:38:52.119Z,102634.00
2023-04-18T18:41:23.420Z,102627.00
2023-04-18T18:43:52.674Z,102628.00
2023-04-18T18:46:22.704Z,102626.00
2023-04-18T18:48:52.022Z,102621.00
2023-04-18T18:51:20.796Z,102625.00
2023-04-18T18:53:49.513Z,102625.00
2023-04-18T18:56:18.253Z,102622.00
2023-04-18T18:58:47.205Z,102622.00
2023-04-18T19:01:16.000Z,102618.00
2023-04-18T19:03:46.299Z,102627.00
2023-04-18T19:06:15.457Z,102627.00
2023-04-18T19:08:44.267Z,102628.00
2023-04-18T19:11:13.149Z,102630.00
2023-04-18T19:13:41.864Z,102624.00
2023-04-18T19:16:10.677Z,102618.00
2023-04-18T19:18:41.543Z,102622.00
2023-04-18T19:21:11.623Z,102621.00
2023-04-18T19:23:41.842Z,102623.00
2023-04-18T19:26:11.093Z,102625.00
2023-04-18T19:28:39.993Z,102628.00
2023-04-18T19:31:09.647Z,102622.00
2023-04-18T19:33:39.042Z,102617.00
2023-04-18T19:36:08.022Z,102625.00
2023-04-18T19:38:38.330Z,102621.00
2023-04-18T19:41:08.183Z,102625.00
2023-04-18T19:43:47.314Z,102639.00
2023-04-18T19:46:21.837Z,102634.00
2023-04-18T19:48:50.696Z,102632.00
2023-04-18T19:51:24.548Z,102631.00
2023-04-18T19:53:55.487Z,102635.00
2023-04-18T19:56:24.226Z,102639.00
2023-04-18T19:58:53.012Z,102640.00
2023-04-18T20:01:22.183Z,102642.00
2023-04-18T20:03:51.129Z,102638.00
2023-04-18T20:06:20.244Z,102643.00
2023-04-18T20:08:48.918Z,102642.00
2023-04-18T20:11:19.179Z,102647.00
2023-04-18T20:13:47.877Z,102643.00
2023-04-18T20:16:16.974Z,102643.00
2023-04-18T20:18:47.617Z,102658.00
2023-04-18T20:21:16.569Z,102650.00
2023-04-18T20:23:45.860Z,102649.00
2023-04-18T20:26:14.620Z,102652.00
2023-04-18T20:28:44.721Z,102659.00
2023-04-18T20:31:13.426Z,102653.00
2023-04-18T20:33:42.367Z,102658.00
2023-04-18T20:36:10.999Z,102658.00
2023-04-18T20:38:40.303Z,102665.00
2023-04-18T20:41:10.742Z,102655.00
2023-04-18T20:43:41.123Z,102668.00
2023-04-18T20:46:12.858Z,102670.00
2023-04-18T20:48:41.707Z,102659.00
2023-04-18T20:51:10.558Z,102668.00
2023-04-18T20:53:39.366Z,102669.00
2023-04-18T20:56:08.102Z,102665.00
2023-04-18T20:58:36.856Z,102669.00
2023-04-18T21:01:05.695Z,102673.00
2023-04-18T21:03:35.998Z,102677.00
2023-04-18T21:06:05.077Z,102684.00
2023-04-18T21:08:37.889Z,102679.00
2023-04-18T21:11:08.062Z,102681.00
2023-04-18T21:13:36.809Z,102676.00
2023-04-18T21:16:07.967Z,102684.00
2023-04-18T21:18:38.326Z,102686.00
2023-04-18T21:21:07.534Z,102674.00
2023-04-18T21:23:43.821Z,102678.00
2023-04-18T21:26:13.676Z,102670.00
2023-04-18T21:29:00.418Z,102681.00
2023-04-18T21:31:32.851Z,102680.00
2023-04-18T21:34:04.804Z,102681.00
2023-04-18T21:36:34.409Z,102693.00
2023-04-18T21:39:04.056Z,102692.00
2023-04-18T21:41:32.706Z,102697.00
2023-04-18T21:44:01.481Z,102694.00
2023-04-18T21:46:30.201Z,102693.00
2023-04-18T21:48:58.864Z,102700.00
2023-04-18T21:51:28.972Z,102702.00
2023-04-18T21:53:57.644Z,102701.00
2023-04-18T21:56:26.829Z,102688.00
2023-04-18T21:58:55.616Z,102700.00
2023-04-18T22:01:24.359Z,102691.00
2023-04-18T22:03:53.890Z,102700.00
2023-04-18T22:06:27.108Z,102703.00
2023-04-18T22:08:58.990Z,102709.00
2023-04-18T22:11:30.195Z,102701.00
2023-04-18T22:14:03.287Z,102695.00
2023-04-18T22:16:33.512Z,102701.00
2023-04-18T22:19:04.134Z,102705.00
2023-04-18T22:21:33.149Z,102710.00
2023-04-18T22:24:06.555Z,102706.00
2023-04-18T22:26:37.630Z,102713.00
2023-04-18T22:29:08.307Z,102706.00
2023-04-18T22:31:38.871Z,102713.00
2023-04-18T22:34:09.779Z,102709.00
2023-04-18T22:36:38.726Z,102714.00
2023-04-18T22:39:10.130Z,102715.00
2023-04-18T22:41:38.978Z,102700.00
2023-04-18T22:44:08.223Z,102702.00
2023-04-18T22:46:45.749Z,102707.00
2023-04-18T22:49:18.024Z,102696.00
2023-04-18T22:51:50.283Z,102704.00
2023-04-18T22:54:22.294Z,102697.00
2023-04-18T22:56:52.667Z,102704.00
2023-04-18T22:59:24.434Z,102703.00
2023-04-18T23:02:02.707Z,102703.00
2023-04-18T23:04:35.805Z,102705.00
2023-04-18T23:07:06.747Z,102699.00
2023-04-18T23:09:46.098Z,102711.00
2023-04-18T23:12:14.974Z,102703.00
2023-04-18T23:14:50.240Z,102708.00
2023-04-18T23:17:23.123Z,102707.00
2023-04-18T23:19:58.885Z,102711.00
2023-04-18T23:22:30.818Z,102712.00
2023-04-18T23:25:02.612Z,102707.00
2023-04-18T23:27:33.433Z,102693.00
2023-04-18T23:30:03.828Z,102712.00
2023-04-18T23:32:36.784Z,102715.00
2023-04-18T23:35:07.876Z,102717.00
2023-04-18T23:37:36.934Z,102715.00
2023-04-18T23:40:10.303Z,102712.00
2023-04-18T23:42:40.662Z,102721.00
2023-04-18T23:45:10.230Z,102715.00
2023-04-18T23:47:39.094Z,102719.00
2023-04-18T23:50:09.569Z,102702.00
2023-04-18T23:52:38.648Z,102710.00
2023-04-18T23:55:10.194Z,102715.00
2023-04-18T23:57:38.859Z,102718.00
